Amunt
Inicio > meteoXarxa
Fes-te'n soci

METEOXARXA

Vilanova d′Alcolea
Ubicació aeroport
Comarca la Plana Alta
Altitud (msnm) 350
Posició geogràfica 40° 12' 35.00" N, 00° 4' 11.00" E
Model Davis Vantage Pro
Presa de dades
Font de les dades Universitat Jaume I de Castelló
Estadístiques. Resum
Data Temperatura (ºC) Humitat (%) Pressió (hPa) Vent (km/h) Precipit. (mm)
Mínima Mitjana Màxima Mínima Mitjana Màxima Mínima Mitjana Màxima Predom. Mitjana Ràfega màxima Total Dies de pluja
Mínima Mitjana Màxima Mínima Mitjana Màxima
Últimes dades diàries
25-03-2017 3,9     10,2     15,8 WSW 10,8 49,9 0,0  
24-03-2017 5,1     8,4     11,8 NE 10,0 30,6 0,0  
23-03-2017 6,4     9,9     12,7 S 9,8 45,1 0,0  
22-03-2017 8,1     12,4     16,9 WNW 9,7 41,8 0,0  
21-03-2017 8,8     12,1     15,3 SE 6,9 30,6 0,0  
20-03-2017 8,3     13,1     18,2 SSE 5,6 30,6 0,0  
19-03-2017 7,3     13,3     19,5 SW 6,1 29,0 0,0  
18-03-2017 4,6     12,5     20,4 SW 7,2 27,4 0,0  
17-03-2017 5,2     10,7     17,6 SSW 7,7 32,2 0,0  
16-03-2017 6,0     11,2     16,8 SE 6,0 30,6 0,0  
15-03-2017 7,7     12,1     15,9 E 9,8 32,2 0,0  
14-03-2017 9,9     12,7     17,0 ENE 14,6 35,4 0,0  
13-03-2017 7,3     10,3     12,8 ENE 21,4 53,1 11,9  
12-03-2017 8,2     13,4     19,9 SE 15,0 62,8 4,8  
11-03-2017 8,3     14,1     19,2 SE 6,4 27,4 0,0  
10-03-2017 12,3     16,9     21,1 SSE 8,7 30,6 0,0  
09-03-2017 10,3     18,0     27,3 SW 5,5 25,7 0,0  
08-03-2017 11,4     15,7     20,2 SW 13,0 77,2 0,0  
07-03-2017 13,8     17,6     22,0 N 18,2 59,5 0,0  
06-03-2017 10,1     15,8     22,3 WSW 12,6 66,0 0,0  
05-03-2017 5,8     11,6     16,9 SW 5,6 27,4 0,0  
04-03-2017 6,0     9,7     14,0 WNW 16,9 57,9 0,3  
03-03-2017 6,9     9,9     13,7 SE 8,5 61,2 8,4  
02-03-2017 6,4     11,0     16,4 SW 6,8 33,8 0,3  
28-02-2017 7,3     10,8     17,1 SW 8,7 43,5 0,0  
27-02-2017 6,8     10,7     15,2 SE 5,3 32,2 0,3  
26-02-2017 6,4     10,2     13,9 SW 6,1 30,6 0,0  
25-02-2017 4,5     8,6     12,6 SSE 6,4 32,2 0,0  
24-02-2017 7,5     11,8     15,3 NE 11,1 43,5 4,1  
23-02-2017 8,6     11,9     17,6 ENE 5,5 32,2 0,0  
22-02-2017 5,2     11,1     17,8 SW 5,5 27,4 0,0  
21-02-2017 4,1     9,4     16,7 SW 6,8 25,7 0,0  
Dades del mes en curs (actualitzades fins l'últim dia disponible)
03/2017 3,9 7,8 13,8 12,6 11,8 17,7 27,3   10,1 77,2 25,7  
Últimes dades mensuals
02/2017 2,4 6,9 12,1 10,6 10,9 14,7 19,3 10,6 104,6 24,5 12
01/2017 -2,2 4,4 9,1 8,3 6,2 12,6 18,5 14,8 133,6 135,6 12
12/2016 1,4 6,9 12,8 10,0 9,9 14,5 17,3 0,4 17,7 92,2 16
11/2016 3,6 8,8 13,5 12,7 10,8 17,3 22,5 0,5 16,1 75,5 16
10/2016 9,9 14,0 17,3 17,4 15,8 21,2 25,5 3,5 35,4 53,0 18
09/2016 10,6 17,0 22,9 21,2 22,2 25,5 34,4 6,5 61,2 45,8 5
08/2016 14,3 18,8 21,9 23,0 22,9 26,9 30,7 6,0 45,1 16,1 4
07/2016 13,8 19,0 21,3 23,4 23,3 27,5 31,3 9,4 46,7 0,0 0
06/2016 11,6 16,1 19,8 20,5 21,2 24,8 28,4 9,0 49,9 1,3 2
05/2016 5,9 12,1 16,1 15,9 15,0 19,8 25,6 10,1 82,1 35,2 9
04/2016 4,6 9,4 11,9 13,3 13,3 17,3 24,6 11,8 64,4 44,6 9
03/2016 2,7 6,9 9,7 10,9 10,9 15,1 21,3 10,2 78,9 42,4 8
02/2016 -0,6 6,1 13,9 10,7 8,7 15,5 22,3 11,7 96,6 11,0 6
Dades de l'any en curs (actualitzades fins l'últim dia disponible)
2017 -2,2 6,3 13,8 10,3 6,2 14,8 27,3   11,5 133,6 185,8  
Últimes dades anuals
2015 -0,4 11,7 18,5 15,9 19,9 20,3 38,3 9,6 103,0 562,9 90
2016 -0,6 11,8 22,9 15,8 8,7 20,0 34,4 7,3 96,6 419,5 97